Time;durP1;ratioP1;P1;durP2;ratioP2;P2;SDS_P1;SDS_P2;PMS_P1;PMS_P2;Temp;Humidity;BMP_temperature;BMP_pressure;BME280_temperature;BME280_humidity;BME280_pressure;Samples;Min_cycle;Max_cycle;Signal;HPM_P1;HPM_P2
2021/01/26 00:02:17;;;;;;;87.85;24.17;;;0.40;82.30;;;;;;5074092;28;20254;-69
2021/01/26 00:04:43;;;;;;;88.90;21.77;;;0.40;82.90;;;;;;5072825;28;20251;-69
2021/01/26 00:07:10;;;;;;;83.15;22.23;;;0.40;83.00;;;;;;5074291;28;20212;-69
2021/01/26 00:09:37;;;;;;;90.57;23.38;;;0.40;82.40;;;;;;5074162;28;20205;-69
2021/01/26 00:12:04;;;;;;;97.35;26.02;;;0.40;81.70;;;;;;5074087;28;20200;-69
2021/01/26 00:14:30;;;;;;;89.50;22.42;;;0.30;81.00;;;;;;5073888;28;20282;-69
2021/01/26 00:16:56;;;;;;;92.15;25.70;;;0.30;80.90;;;;;;5074574;28;20595;-69
2021/01/26 00:19:23;;;;;;;93.78;24.85;;;0.30;80.80;;;;;;5074114;28;20204;-69
2021/01/26 00:21:49;;;;;;;100.80;26.20;;;0.30;79.80;;;;;;5074246;28;20205;-69
2021/01/26 00:24:15;;;;;;;93.90;22.88;;;0.30;80.30;;;;;;5074055;28;20239;-69
2021/01/26 00:26:42;;;;;;;96.00;24.25;;;0.30;80.20;;;;;;5074006;28;20205;-69
2021/01/26 00:29:09;;;;;;;93.45;22.70;;;0.20;82.70;;;;;;5073802;28;20236;-69
2021/01/26 00:31:36;;;;;;;93.95;24.38;;;0.20;91.20;;;;;;5074150;28;20205;-69
2021/01/26 00:34:02;;;;;;;97.20;27.60;;;0.20;87.40;;;;;;5073577;28;20323;-69
2021/01/26 00:36:29;;;;;;;98.50;24.98;;;0.20;85.90;;;;;;5072500;28;20669;-69
2021/01/26 00:38:56;;;;;;;92.93;23.40;;;0.20;97.10;;;;;;5073552;28;20674;-68
2021/01/26 00:41:22;;;;;;;91.70;23.73;;;0.20;94.60;;;;;;5073606;28;20240;-69
2021/01/26 00:43:49;;;;;;;94.88;24.63;;;0.20;93.80;;;;;;5073308;28;20233;-69
2021/01/26 00:46:15;;;;;;;96.00;24.77;;;0.20;91.60;;;;;;5073845;28;20621;-69
2021/01/26 00:48:42;;;;;;;96.38;25.27;;;0.20;89.50;;;;;;5073610;28;20231;-69
2021/01/26 00:51:08;;;;;;;96.80;24.83;;;0.20;86.40;;;;;;5073635;28;20291;-69
2021/01/26 00:53:35;;;;;;;89.78;23.17;;;0.20;88.30;;;;;;5073225;28;20312;-69
2021/01/26 00:56:02;;;;;;;97.03;26.00;;;0.20;88.90;;;;;;5073272;28;20213;-69
2021/01/26 00:58:28;;;;;;;95.07;25.05;;;0.20;90.70;;;;;;5073123;28;20289;-69
2021/01/26 01:00:55;;;;;;;93.32;25.95;;;0.20;92.80;;;;;;5073504;28;20271;-69
2021/01/26 01:03:22;;;;;;;99.85;26.70;;;0.20;97.30;;;;;;5073192;28;20224;-69
2021/01/26 01:05:48;;;;;;;103.00;23.27;;;0.20;97.70;;;;;;5073074;28;20255;-69
2021/01/26 01:08:14;;;;;;;89.57;23.33;;;0.20;94.70;;;;;;5072108;28;20335;-69
2021/01/26 01:10:41;;;;;;;90.22;23.25;;;0.20;94.50;;;;;;5073226;28;20208;-69
2021/01/26 01:13:09;;;;;;;90.00;23.35;;;0.10;95.20;;;;;;5072768;28;20693;-69
2021/01/26 01:15:37;;;;;;;91.63;22.92;;;0.10;91.80;;;;;;5072762;28;20213;-69
2021/01/26 01:18:05;;;;;;;85.10;22.35;;;0.10;94.10;;;;;;5073098;28;20216;-69
2021/01/26 01:20:32;;;;;;;91.20;24.65;;;0.00;93.30;;;;;;5072915;28;20220;-69
2021/01/26 01:22:58;;;;;;;97.43;25.80;;;0.10;91.60;;;;;;5072621;28;20205;-69
2021/01/26 01:25:25;;;;;;;93.43;23.95;;;0.10;90.70;;;;;;5072599;28;20248;-69
2021/01/26 01:27:51;;;;;;;95.22;25.83;;;0.10;90.60;;;;;;5072957;28;20209;-69
2021/01/26 01:30:23;;;;;;;92.22;23.48;;;0.10;90.10;;;;;;5072847;28;20620;-69
2021/01/26 01:32:49;;;;;;;94.32;24.58;;;0.10;92.10;;;;;;5072350;28;20216;-69
2021/01/26 01:35:18;;;;;;;93.60;25.23;;;0.20;92.50;;;;;;5072133;28;20215;-68
2021/01/26 01:37:44;;;;;;;92.40;22.70;;;0.20;92.90;;;;;;5071271;28;20213;-69
2021/01/26 01:40:14;;;;;;;92.25;21.08;;;0.20;92.60;;;;;;5072091;28;20227;-69
2021/01/26 01:42:40;;;;;;;91.82;24.42;;;0.20;92.90;;;;;;5072569;28;20208;-69
2021/01/26 01:45:08;;;;;;;92.85;24.00;;;0.20;92.70;;;;;;5072506;28;20223;-68
2021/01/26 01:47:41;;;;;;;87.90;22.25;;;0.30;94.30;;;;;;5073804;28;20212;-69
2021/01/26 01:50:13;;;;;;;91.75;21.75;;;0.30;95.30;;;;;;5073446;28;20201;-69
2021/01/26 01:52:41;;;;;;;83.40;21.13;;;0.30;97.60;;;;;;5072891;28;20205;-69
2021/01/26 01:55:12;;;;;;;93.18;23.40;;;0.30;96.30;;;;;;5072815;28;20212;-69
2021/01/26 01:57:43;;;;;;;87.68;20.55;;;0.30;94.90;;;;;;5073254;28;20201;-69
2021/01/26 02:00:13;;;;;;;86.85;21.90;;;0.30;95.10;;;;;;5072785;28;20639;-69
2021/01/26 02:02:41;;;;;;;82.60;18.10;;;0.30;95.20;;;;;;5072913;28;20696;-69
2021/01/26 02:05:09;;;;;;;84.82;17.23;;;0.30;94.30;;;;;;5072653;28;20216;-69
2021/01/26 02:07:35;;;;;;;77.30;17.05;;;0.30;94.00;;;;;;5073222;28;20216;-69
2021/01/26 02:10:03;;;;;;;90.53;20.92;;;0.30;94.20;;;;;;5071618;28;20209;-69
2021/01/26 02:12:30;;;;;;;85.40;18.75;;;0.30;93.70;;;;;;5072418;28;20236;-69
2021/01/26 02:14:58;;;;;;;77.93;18.50;;;0.40;93.80;;;;;;5072772;28;20243;-69
2021/01/26 02:17:39;;;;;;;77.63;16.10;;;0.40;92.90;;;;;;5072411;28;20469;-69
2021/01/26 02:20:54;;;;;;;81.68;19.10;;;0.40;95.30;;;;;;5072618;28;20220;-68
2021/01/26 02:23:52;;;;;;;86.03;18.60;;;0.40;92.90;;;;;;5071738;28;20225;-69
2021/01/26 02:27:15;;;;;;;84.55;17.70;;;0.40;94.80;;;;;;5071928;28;20699;-69
2021/01/26 02:30:10;;;;;;;78.57;17.13;;;0.40;92.80;;;;;;5070072;28;20209;-68
2021/01/26 02:32:53;;;;;;;77.63;15.68;;;0.40;91.90;;;;;;5071534;28;20240;-68
2021/01/26 02:35:38;;;;;;;77.07;16.63;;;0.30;92.20;;;;;;5071735;28;20591;-68
2021/01/26 02:38:44;;;;;;;81.63;17.05;;;0.30;92.00;;;;;;5071459;28;20208;-68
2021/01/26 02:41:23;;;;;;;75.95;14.90;;;0.40;92.20;;;;;;5070147;28;20221;-68
2021/01/26 02:44:02;;;;;;;72.13;13.50;;;0.30;93.20;;;;;;5071519;28;20615;-68
2021/01/26 02:46:39;;;;;;;80.43;14.45;;;0.30;91.90;;;;;;5070816;28;20695;-69
2021/01/26 02:49:15;;;;;;;75.53;13.77;;;0.30;91.10;;;;;;5071454;28;20189;-68
2021/01/26 02:51:49;;;;;;;73.40;14.32;;;0.30;90.10;;;;;;5071646;28;20330;-69
2021/01/26 02:54:25;;;;;;;75.82;13.73;;;0.30;86.70;;;;;;5071417;28;20228;-68
2021/01/26 02:56:59;;;;;;;74.63;14.20;;;0.30;87.00;;;;;;5071573;28;20200;-68
2021/01/26 02:59:32;;;;;;;72.40;13.43;;;0.40;88.60;;;;;;5071323;28;20205;-69
2021/01/26 03:02:06;;;;;;;77.70;15.27;;;0.40;85.50;;;;;;5071529;28;20599;-69
2021/01/26 03:04:38;;;;;;;75.10;13.65;;;0.40;82.20;;;;;;5071763;28;20225;-68
2021/01/26 03:07:07;;;;;;;74.43;14.40;;;0.40;81.20;;;;;;5071405;28;20209;-69
2021/01/26 03:09:39;;;;;;;76.38;16.25;;;0.40;73.10;;;;;;5071125;28;20208;-68
2021/01/26 03:12:09;;;;;;;73.97;14.43;;;0.50;73.20;;;;;;5070099;28;20584;-68
2021/01/26 03:14:39;;;;;;;73.68;13.75;;;0.50;65.50;;;;;;5071081;28;20262;-69
2021/01/26 03:17:13;;;;;;;77.25;15.57;;;0.50;62.50;;;;;;5070947;28;20232;-68
2021/01/26 03:19:43;;;;;;;75.60;13.75;;;0.50;60.30;;;;;;5071246;28;20291;-69
2021/01/26 03:22:11;;;;;;;72.45;13.23;;;0.50;62.70;;;;;;5071485;28;20356;-69
2021/01/26 03:24:40;;;;;;;78.18;14.65;;;0.40;49.70;;;;;;5071148;28;20229;-69
2021/01/26 03:27:12;;;;;;;71.90;11.10;;;0.40;39.10;;;;;;5071226;28;20236;-68
2021/01/26 03:29:41;;;;;;;75.97;13.00;;;0.50;24.50;;;;;;5071020;28;20201;-68
2021/01/26 03:32:12;;;;;;;73.88;13.55;;;0.50;18.30;;;;;;5070898;28;20205;-68
2021/01/26 03:34:38;;;;;;;74.30;13.30;;;0.40;24.60;;;;;;5070827;28;20233;-68
2021/01/26 03:37:06;;;;;;;71.35;12.32;;;0.40;28.30;;;;;;5071142;28;20215;-68
2021/01/26 03:39:33;;;;;;;72.40;13.82;;;0.30;23.60;;;;;;5071074;28;20204;-68
2021/01/26 03:42:00;;;;;;;71.82;13.13;;;0.40;19.50;;;;;;5069750;28;20204;-68
2021/01/26 03:44:28;;;;;;;72.20;13.00;;;0.30;22.00;;;;;;5070766;28;20231;-68
2021/01/26 03:47:22;;;;;;;67.03;11.95;;;0.30;19.00;;;;;;5070862;28;20673;-68
2021/01/26 03:50:20;;;;;;;68.05;11.10;;;0.40;19.50;;;;;;5071123;28;20205;-68
2021/01/26 03:53:05;;;;;;;69.20;11.98;;;0.30;22.00;;;;;;5070752;28;20295;-68
2021/01/26 03:55:38;;;;;;;67.85;11.25;;;0.30;19.20;;;;;;5070758;28;20267;-68
2021/01/26 03:58:15;;;;;;;69.32;11.75;;;0.40;16.10;;;;;;5071495;28;20208;-68
2021/01/26 04:00:48;;;;;;;67.88;11.50;;;0.40;1.00;;;;;;5074871;28;20599;-68
2021/01/26 04:03:25;;;;;;;68.88;12.30;;;0.50;1.00;;;;;;5074408;28;20231;-68
2021/01/26 04:05:56;;;;;;;67.85;10.77;;;0.50;1.00;;;;;;5074230;28;20204;-68
2021/01/26 04:08:30;;;;;;;72.55;11.68;;;0.50;1.00;;;;;;5074342;28;20248;-68
2021/01/26 04:11:04;;;;;;;69.45;11.18;;;0.50;1.00;;;;;;5074502;28;20583;-68
2021/01/26 04:13:36;;;;;;;69.68;11.05;;;0.50;1.00;;;;;;5073071;28;20286;-68
2021/01/26 04:16:04;;;;;;;65.55;9.70;;;0.50;1.00;;;;;;5074063;28;20205;-68
2021/01/26 04:18:36;;;;;;;70.20;11.55;;;0.50;1.00;;;;;;5073801;28;20236;-68
2021/01/26 04:21:03;;;;;;;68.43;11.02;;;0.60;1.00;;;;;;5073977;28;20232;-68
2021/01/26 04:23:30;;;;;;;68.97;11.18;;;0.50;1.00;;;;;;5073853;28;20286;-68
2021/01/26 04:26:04;;;;;;;71.40;12.27;;;0.50;1.00;;;;;;5074188;28;20201;-68
2021/01/26 04:28:37;;;;;;;69.38;11.77;;;0.50;1.00;;;;;;5074038;28;20208;-68
2021/01/26 04:31:06;;;;;;;69.35;10.45;;;0.50;1.00;;;;;;5073798;28;20215;-68
2021/01/26 04:33:33;;;;;;;70.85;10.65;;;0.50;1.00;;;;;;5073568;28;20319;-68
2021/01/26 04:35:59;;;;;;;65.95;10.60;;;0.50;1.00;;;;;;5073925;28;20209;-68
2021/01/26 04:38:26;;;;;;;66.85;10.18;;;0.50;1.00;;;;;;5073631;28;20217;-68
2021/01/26 04:40:55;;;;;;;69.75;10.50;;;0.50;1.00;;;;;;5073733;28;20228;-68
2021/01/26 04:43:29;;;;;;;67.70;10.63;;;0.50;1.00;;;;;;5073208;28;20229;-69
2021/01/26 04:46:04;;;;;;;67.70;11.00;;;0.50;1.00;;;;;;5073497;28;20248;-69
2021/01/26 04:48:35;;;;;;;69.97;11.10;;;0.50;1.00;;;;;;5074046;28;20200;-67
2021/01/26 04:51:11;;;;;;;69.78;11.75;;;0.50;1.00;;;;;;5072475;28;20204;-69
2021/01/26 04:54:23;;;;;;;67.18;10.00;;;0.50;1.00;;;;;;5073412;28;20225;-69
2021/01/26 04:57:00;;;;;;;63.03;8.48;;;0.50;1.00;;;;;;5073680;28;20254;-67
2021/01/26 04:59:42;;;;;;;69.55;10.00;;;0.50;1.00;;;;;;5073428;28;20212;-67
2021/01/26 05:02:32;;;;;;;68.50;11.48;;;0.50;1.00;;;;;;5073262;28;20240;-67
2021/01/26 05:05:02;;;;;;;69.07;11.70;;;0.50;1.00;;;;;;5073364;28;20240;-67
2021/01/26 05:07:32;;;;;;;67.45;10.55;;;0.50;1.00;;;;;;5073304;28;20205;-67
2021/01/26 05:10:04;;;;;;;65.40;10.52;;;0.50;1.00;;;;;;5072689;28;20767;-67
2021/01/26 05:12:35;;;;;;;66.88;10.70;;;0.50;1.00;;;;;;5073594;28;20744;-67
2021/01/26 05:15:05;;;;;;;64.32;10.27;;;0.50;1.00;;;;;;5073328;28;20236;-67
2021/01/26 05:17:39;;;;;;;69.82;10.70;;;0.50;1.00;;;;;;5073430;28;20668;-67
2021/01/26 05:20:12;;;;;;;65.90;10.55;;;0.50;3.60;;;;;;5072089;28;20224;-67
2021/01/26 05:22:46;;;;;;;66.70;9.77;;;0.50;1.90;;;;;;5072920;28;20246;-67
2021/01/26 05:25:17;;;;;;;66.43;10.15;;;0.60;1.00;;;;;;5072694;28;20235;-67
2021/01/26 05:27:43;;;;;;;65.03;9.70;;;0.60;1.00;;;;;;5073025;28;20270;-67
2021/01/26 05:30:18;;;;;;;63.33;8.88;;;0.60;1.00;;;;;;5073060;28;20205;-67
2021/01/26 05:32:47;;;;;;;63.60;8.60;;;0.60;1.00;;;;;;5072486;28;20216;-67
2021/01/26 05:35:13;;;;;;;62.20;7.70;;;0.60;1.00;;;;;;5073128;28;20262;-67
2021/01/26 05:37:40;;;;;;;62.92;8.43;;;0.70;1.00;;;;;;5072421;28;20677;-67
2021/01/26 05:40:12;;;;;;;64.78;8.40;;;0.70;1.00;;;;;;5072425;28;20225;-67
2021/01/26 05:42:40;;;;;;;70.82;8.50;;;0.70;1.00;;;;;;5072501;28;20677;-67
2021/01/26 05:45:11;;;;;;;64.35;8.68;;;0.70;1.00;;;;;;5072457;28;20244;-67
2021/01/26 05:47:39;;;;;;;62.63;9.02;;;0.70;1.00;;;;;;5072474;28;20213;-68
2021/01/26 05:50:23;;;;;;;63.75;8.82;;;0.70;1.00;;;;;;5072081;28;20204;-68
2021/01/26 05:52:49;;;;;;;62.95;9.35;;;0.70;1.00;;;;;;5070875;28;20208;-68
2021/01/26 05:55:20;;;;;;;65.97;8.85;;;0.70;1.00;;;;;;5072274;28;20217;-68
2021/01/26 05:57:49;;;;;;;62.20;8.10;;;0.70;1.00;;;;;;5072206;28;20251;-68
2021/01/26 06:00:20;;;;;;;61.58;8.25;;;0.70;1.00;;;;;;5071898;28;20590;-68
2021/01/26 06:02:48;;;;;;;63.78;8.75;;;0.70;1.00;;;;;;5072113;28;20189;-68
2021/01/26 06:05:19;;;;;;;69.03;8.85;;;0.80;1.00;;;;;;5072209;28;20204;-68
2021/01/26 06:08:08;;;;;;;60.50;7.07;;;0.80;1.00;;;;;;5072135;28;20208;-68
2021/01/26 06:10:35;;;;;;;64.53;8.07;;;0.80;1.00;;;;;;5071978;28;20205;-68
2021/01/26 06:13:03;;;;;;;61.00;6.90;;;0.80;1.00;;;;;;5071590;28;20229;-68
2021/01/26 06:15:31;;;;;;;62.22;7.40;;;0.90;1.00;;;;;;5072126;28;20564;-68
2021/01/26 06:18:12;;;;;;;64.20;7.18;;;0.80;1.00;;;;;;5071983;28;20205;-68
2021/01/26 06:20:40;;;;;;;61.13;6.97;;;0.80;1.00;;;;;;5071562;28;20221;-68
2021/01/26 06:23:18;;;;;;;60.65;7.68;;;0.80;1.00;;;;;;5070434;28;20640;-68
2021/01/26 06:25:51;;;;;;;63.08;7.47;;;0.80;1.00;;;;;;5071441;28;20701;-68
2021/01/26 06:28:32;;;;;;;63.15;7.82;;;0.80;1.00;;;;;;5071810;28;20209;-68
2021/01/26 06:31:05;;;;;;;62.85;6.85;;;0.80;1.00;;;;;;5071928;28;20205;-68
2021/01/26 06:34:06;;;;;;;61.75;6.53;;;0.80;1.00;;;;;;5071381;28;20789;-68
2021/01/26 06:36:52;;;;;;;65.15;5.63;;;0.80;1.00;;;;;;5071832;28;20208;-68
2021/01/26 06:39:43;;;;;;;60.03;5.95;;;0.80;1.00;;;;;;5067890;28;20207;-68
2021/01/26 06:42:21;;;;;;;60.33;5.07;;;0.80;1.00;;;;;;5034852;28;20235;-68
2021/01/26 06:45:04;;;;;;;59.00;5.75;;;0.80;1.00;;;;;;5071670;28;20294;-68
2021/01/26 06:48:06;;;;;;;64.10;5.28;;;0.80;1.00;;;;;;5071499;28;20209;-68
2021/01/26 06:51:01;;;;;;;59.33;5.68;;;0.80;1.00;;;;;;5071298;28;20204;-68
2021/01/26 06:53:42;;;;;;;58.53;4.50;;;0.80;1.00;;;;;;5035875;28;20586;-68
2021/01/26 06:56:20;;;;;;;61.10;5.35;;;0.80;1.00;;;;;;5071376;28;20209;-68
2021/01/26 06:59:26;;;;;;;60.80;5.57;;;0.80;1.00;;;;;;5071199;28;20207;-68
2021/01/26 07:02:16;;;;;;;59.90;4.45;;;0.90;1.00;;;;;;5030707;28;20228;-68
2021/01/26 07:05:12;;;;;;;60.10;5.30;;;0.80;1.00;;;;;;5071320;28;20274;-68
2021/01/26 07:07:59;;;;;;;61.38;6.07;;;0.80;1.00;;;;;;5071654;28;20205;-68
2021/01/26 07:10:39;;;;;;;58.38;4.70;;;0.80;1.00;;;;;;5071341;28;20197;-68
2021/01/26 07:13:25;;;;;;;60.10;5.70;;;0.80;1.00;;;;;;5071110;28;20228;-68
2021/01/26 07:16:18;;;;;;;61.45;5.75;;;0.80;1.00;;;;;;5071188;28;20212;-68
2021/01/26 07:19:17;;;;;;;64.65;6.20;;;0.90;1.00;;;;;;5071618;28;20209;-68
2021/01/26 07:22:18;;;;;;;64.68;5.82;;;0.80;1.00;;;;;;5070927;28;20607;-68
2021/01/26 07:24:53;;;;;;;63.78;5.85;;;0.90;1.00;;;;;;5070151;28;20232;-68
2021/01/26 07:27:40;;;;;;;62.60;5.40;;;0.80;1.00;;;;;;5071148;28;20212;-68
2021/01/26 07:30:13;;;;;;;63.55;5.10;;;0.80;1.00;;;;;;5069944;28;20205;-68
2021/01/26 07:32:46;;;;;;;63.17;5.28;;;0.90;1.00;;;;;;5069782;28;20212;-68
2021/01/26 07:35:21;;;;;;;63.63;4.75;;;0.90;1.00;;;;;;5075036;28;20589;-68
2021/01/26 07:37:55;;;;;;;57.72;5.00;;;0.80;1.00;;;;;;5073516;28;20253;-68
2021/01/26 07:40:27;;;;;;;59.58;5.20;;;0.90;1.00;;;;;;5074501;28;20262;-68
2021/01/26 07:43:10;;;;;;;59.90;4.63;;;0.90;1.00;;;;;;5074913;28;20285;-68
2021/01/26 07:45:46;;;;;;;58.72;4.90;;;0.90;1.00;;;;;;5074884;28;20627;-68
2021/01/26 07:48:19;;;;;;;62.30;5.35;;;1.00;1.00;;;;;;5074867;28;20200;-68
2021/01/26 07:50:49;;;;;;;61.97;4.63;;;1.00;1.00;;;;;;5075091;28;20575;-68
2021/01/26 07:53:22;;;;;;;59.63;4.95;;;1.00;1.00;;;;;;5074597;28;20232;-67
2021/01/26 07:55:54;;;;;;;62.20;5.55;;;1.00;1.00;;;;;;5073389;28;20203;-68
2021/01/26 07:58:21;;;;;;;60.53;5.00;;;1.00;1.00;;;;;;5074534;28;20253;-67
2021/01/26 08:00:51;;;;;;;58.75;4.25;;;1.00;1.00;;;;;;5074467;28;20485;-67
2021/01/26 08:03:22;;;;;;;60.20;4.50;;;1.00;1.00;;;;;;5074230;28;20244;-68
2021/01/26 08:05:50;;;;;;;61.95;5.35;;;1.00;1.00;;;;;;5074398;28;20295;-67
2021/01/26 08:08:21;;;;;;;61.15;5.78;;;1.00;1.00;;;;;;5074281;28;20241;-67
2021/01/26 08:11:03;;;;;;;61.67;5.10;;;1.00;1.00;;;;;;5074364;28;20203;-68
2021/01/26 08:13:31;;;;;;;60.33;5.35;;;1.00;1.00;;;;;;5074111;28;20235;-68
2021/01/26 08:16:11;;;;;;;58.55;5.03;;;1.10;1.00;;;;;;5074052;28;20201;-67
2021/01/26 08:18:38;;;;;;;63.35;6.53;;;1.10;1.00;;;;;;5074373;28;20231;-68
2021/01/26 08:21:31;;;;;;;60.72;6.50;;;1.10;1.00;;;;;;5074279;28;20217;-67
2021/01/26 08:24:27;;;;;;;66.40;5.75;;;1.20;1.00;;;;;;5073811;28;20319;-67
2021/01/26 08:27:16;;;;;;;60.25;5.60;;;1.20;1.00;;;;;;5072992;28;20548;-67
2021/01/26 08:29:55;;;;;;;62.75;6.80;;;1.30;1.00;;;;;;5073738;28;20688;-67
2021/01/26 08:32:42;;;;;;;60.80;6.30;;;1.30;1.00;;;;;;5073836;28;20207;-68
2021/01/26 08:35:10;;;;;;;62.95;7.70;;;1.30;1.00;;;;;;5074123;28;20223;-68
2021/01/26 08:37:46;;;;;;;61.13;6.70;;;1.30;1.00;;;;;;5073966;28;20315;-67
2021/01/26 08:40:19;;;;;;;66.30;6.22;;;1.40;1.00;;;;;;5073812;28;20204;-67
2021/01/26 08:43:02;;;;;;;61.42;6.18;;;1.50;1.00;;;;;;5073530;28;20205;-67
2021/01/26 08:45:53;;;;;;;60.33;5.85;;;1.40;1.00;;;;;;5072447;28;20240;-67
2021/01/26 08:48:26;;;;;;;67.95;6.60;;;1.40;1.00;;;;;;5073578;28;20212;-67
2021/01/26 08:51:06;;;;;;;62.40;6.50;;;1.40;1.00;;;;;;5073834;28;20232;-67
2021/01/26 08:53:37;;;;;;;66.47;6.07;;;1.50;1.00;;;;;;5073190;28;20570;-68
2021/01/26 08:56:11;;;;;;;60.55;6.43;;;1.50;1.00;;;;;;5073801;28;20209;-67
2021/01/26 08:58:40;;;;;;;58.38;5.50;;;1.50;1.00;;;;;;5072390;28;20583;-67
2021/01/26 09:01:10;;;;;;;61.63;6.30;;;1.50;1.00;;;;;;5073677;28;20576;-67
2021/01/26 09:03:40;;;;;;;59.78;6.55;;;1.50;1.00;;;;;;5073388;28;20256;-67
2021/01/26 09:06:09;;;;;;;61.03;6.88;;;1.50;1.00;;;;;;5073489;28;20622;-67
2021/01/26 09:08:52;;;;;;;60.30;6.72;;;1.50;1.00;;;;;;5073637;28;20240;-67
2021/01/26 09:11:36;;;;;;;64.68;8.48;;;1.50;1.00;;;;;;5073582;28;20292;-67
2021/01/26 09:14:12;;;;;;;61.72;6.13;;;1.50;1.00;;;;;;5070099;28;20645;-67
2021/01/26 09:16:41;;;;;;;61.72;5.80;;;1.50;1.00;;;;;;5073221;28;20211;-67
2021/01/26 09:19:17;;;;;;;61.13;5.68;;;1.50;1.00;;;;;;5073139;28;20205;-67
2021/01/26 09:21:44;;;;;;;60.35;5.65;;;1.70;1.00;;;;;;5073624;28;20235;-67
2021/01/26 09:24:11;;;;;;;58.47;5.25;;;1.70;1.00;;;;;;5072965;28;20684;-67
2021/01/26 09:26:37;;;;;;;59.05;6.20;;;1.70;1.00;;;;;;5073001;28;20590;-67
2021/01/26 09:29:04;;;;;;;62.08;5.55;;;1.80;1.00;;;;;;5072931;28;20479;-68
2021/01/26 09:31:31;;;;;;;62.28;5.20;;;1.80;1.00;;;;;;5073100;28;20236;-67
2021/01/26 09:34:03;;;;;;;62.38;5.50;;;1.90;1.00;;;;;;5072689;28;20658;-68
2021/01/26 09:36:30;;;;;;;58.30;4.90;;;2.00;1.00;;;;;;5072853;28;20201;-68
2021/01/26 09:39:03;;;;;;;59.50;5.38;;;2.10;1.00;;;;;;5072756;28;20209;-68
2021/01/26 09:41:31;;;;;;;58.05;4.38;;;2.20;1.00;;;;;;5072730;28;20262;-68
2021/01/26 09:44:04;;;;;;;58.15;4.45;;;2.30;1.00;;;;;;5072438;28;20229;-68
2021/01/26 09:46:34;;;;;;;59.22;5.25;;;2.30;1.00;;;;;;5072640;28;20208;-68
2021/01/26 09:49:13;;;;;;;61.28;5.03;;;2.30;1.00;;;;;;5072758;28;20205;-68
2021/01/26 09:51:43;;;;;;;63.10;5.00;;;2.40;1.00;;;;;;5072490;28;20207;-68
2021/01/26 09:54:14;;;;;;;59.17;4.72;;;2.50;1.00;;;;;;5072397;28;20722;-68
2021/01/26 09:56:41;;;;;;;57.78;4.63;;;2.40;1.00;;;;;;5072347;28;20585;-68
2021/01/26 09:59:10;;;;;;;60.05;4.40;;;2.30;1.00;;;;;;5072568;28;20254;-68
2021/01/26 10:01:39;;;;;;;59.58;4.45;;;2.40;1.00;;;;;;5072434;28;20285;-68
2021/01/26 10:04:07;;;;;;;57.80;4.35;;;2.30;1.00;;;;;;5072146;28;20227;-69
2021/01/26 10:06:35;;;;;;;58.50;4.43;;;2.20;1.00;;;;;;5072461;28;20217;-68
2021/01/26 10:09:22;;;;;;;60.65;4.10;;;2.20;1.00;;;;;;5072158;28;20299;-68
2021/01/26 10:11:48;;;;;;;59.30;5.65;;;2.20;1.00;;;;;;5072312;28;20208;-67
2021/01/26 10:14:17;;;;;;;59.45;4.45;;;2.20;1.00;;;;;;5072072;28;20235;-68
2021/01/26 10:16:46;;;;;;;57.60;4.60;;;2.30;1.00;;;;;;5071998;28;20248;-68
2021/01/26 10:19:16;;;;;;;58.63;4.55;;;2.40;1.00;;;;;;5072210;28;20577;-67
2021/01/26 10:21:43;;;;;;;59.10;4.53;;;2.40;1.00;;;;;;5072394;28;20696;-70
2021/01/26 10:24:21;;;;;;;57.25;4.05;;;2.50;1.00;;;;;;5071959;28;20228;-70
2021/01/26 10:26:48;;;;;;;58.35;4.95;;;2.70;1.00;;;;;;5072028;28;20211;-70
2021/01/26 10:29:22;;;;;;;60.88;4.03;;;2.90;1.00;;;;;;5071831;28;20205;-70
2021/01/26 10:31:50;;;;;;;57.90;4.45;;;2.90;1.00;;;;;;5070575;28;20201;-71
2021/01/26 10:34:19;;;;;;;58.83;4.63;;;3.00;1.00;;;;;;5071275;28;20239;-72
2021/01/26 10:36:46;;;;;;;60.38;4.05;;;3.10;1.00;;;;;;5071708;28;20205;-73
2021/01/26 10:39:26;;;;;;;60.47;4.03;;;3.20;1.00;;;;;;5071581;28;20688;-74
2021/01/26 10:42:01;;;;;;;58.13;4.30;;;3.20;1.00;;;;;;5070919;28;20220;-70
2021/01/26 10:44:29;;;;;;;59.00;4.50;;;3.30;1.00;;;;;;5071514;28;20235;-70
2021/01/26 10:46:56;;;;;;;60.20;4.13;;;3.30;1.00;;;;;;5071995;28;20212;-71
2021/01/26 10:49:30;;;;;;;58.00;4.45;;;3.30;1.00;;;;;;5070243;28;20209;-71
2021/01/26 10:51:59;;;;;;;60.40;5.20;;;3.20;1.00;;;;;;5071177;28;20204;-71
2021/01/26 10:54:26;;;;;;;61.22;4.75;;;3.10;1.00;;;;;;5071319;28;20256;-71
2021/01/26 10:56:53;;;;;;;58.85;3.80;;;3.00;1.00;;;;;;5071388;28;20744;-71
2021/01/26 10:59:21;;;;;;;59.15;5.15;;;3.00;1.00;;;;;;5071420;28;20642;-71
2021/01/26 11:01:48;;;;;;;58.88;4.53;;;2.90;1.00;;;;;;5071569;28;20220;-71
2021/01/26 11:04:16;;;;;;;58.75;5.03;;;2.90;1.00;;;;;;5071306;28;20235;-71
2021/01/26 11:06:43;;;;;;;61.05;4.60;;;2.90;1.00;;;;;;5071130;28;20278;-71
2021/01/26 11:09:14;;;;;;;59.15;4.38;;;2.80;1.00;;;;;;5074007;28;20732;-71
2021/01/26 11:11:40;;;;;;;57.13;4.10;;;2.80;1.00;;;;;;5075705;28;20226;-71
2021/01/26 11:14:08;;;;;;;59.30;4.20;;;2.70;1.00;;;;;;5075362;28;20312;-71
2021/01/26 11:16:35;;;;;;;58.60;4.45;;;2.70;1.00;;;;;;5075457;28;20208;-71
2021/01/26 11:19:04;;;;;;;59.20;4.38;;;2.60;1.00;;;;;;5077389;28;20205;-71
2021/01/26 11:21:31;;;;;;;60.28;4.80;;;2.60;1.00;;;;;;5081096;28;20213;-71
2021/01/26 11:23:57;;;;;;;59.58;3.90;;;2.60;1.00;;;;;;5080372;28;20229;-71
2021/01/26 11:26:25;;;;;;;59.55;4.00;;;2.60;1.00;;;;;;5079765;28;20205;-71
2021/01/26 11:28:51;;;;;;;58.67;3.63;;;2.70;1.00;;;;;;5079897;28;20292;-71
2021/01/26 11:31:19;;;;;;;58.15;4.10;;;2.70;1.00;;;;;;5078377;28;20197;-71
2021/01/26 11:33:46;;;;;;;56.60;3.75;;;2.90;1.00;;;;;;5076202;28;20797;-71
2021/01/26 11:36:13;;;;;;;57.30;3.50;;;3.00;1.00;;;;;;5078111;28;20236;-71
2021/01/26 11:38:40;;;;;;;56.78;4.00;;;3.00;1.00;;;;;;5078011;28;20201;-71
2021/01/26 11:41:06;;;;;;;56.92;3.92;;;3.10;1.00;;;;;;5077609;28;20235;-71
2021/01/26 11:43:34;;;;;;;61.00;3.63;;;3.20;1.00;;;;;;5077980;28;20232;-71
2021/01/26 11:46:01;;;;;;;58.45;4.13;;;3.30;1.00;;;;;;5077534;28;20685;-71
2021/01/26 11:48:29;;;;;;;59.40;4.32;;;3.30;1.00;;;;;;5076891;28;20205;-71
2021/01/26 11:50:56;;;;;;;59.75;4.40;;;3.40;1.00;;;;;;5074048;28;20209;-71
2021/01/26 11:53:22;;;;;;;59.60;4.15;;;3.40;1.00;;;;;;5074339;28;20224;-71
2021/01/26 11:55:49;;;;;;;59.05;4.28;;;3.40;1.00;;;;;;5074793;28;20837;-71
2021/01/26 11:58:15;;;;;;;57.15;3.53;;;3.40;1.00;;;;;;5074758;28;20268;-71
2021/01/26 12:00:43;;;;;;;58.65;5.13;;;3.50;1.00;;;;;;5074426;28;20225;-71
2021/01/26 12:03:10;;;;;;;60.00;4.68;;;3.50;1.00;;;;;;5074080;28;20255;-71
2021/01/26 12:05:38;;;;;;;58.47;4.15;;;3.80;1.00;;;;;;5074494;28;20263;-71
2021/01/26 12:08:06;;;;;;;59.83;5.10;;;4.40;1.00;;;;;;5074507;28;20208;-71
2021/01/26 12:10:33;;;;;;;61.38;5.07;;;5.40;1.00;;;;;;5074370;28;20209;-71
2021/01/26 12:13:00;;;;;;;60.92;4.78;;;5.60;1.00;;;;;;5074148;28;20218;-71
2021/01/26 12:15:30;;;;;;;60.22;5.10;;;5.80;1.00;;;;;;5074105;28;20205;-70
2021/01/26 12:17:57;;;;;;;63.97;5.10;;;6.50;1.00;;;;;;5074469;28;20267;-71
2021/01/26 12:20:25;;;;;;;60.78;4.85;;;7.00;1.00;;;;;;5073629;28;20213;-71
2021/01/26 12:22:52;;;;;;;59.88;5.00;;;6.80;1.00;;;;;;5072928;28;20296;-70
2021/01/26 12:25:18;;;;;;;58.15;4.38;;;6.20;1.00;;;;;;5074104;28;20216;-71
2021/01/26 12:27:45;;;;;;;62.88;4.45;;;5.70;1.00;;;;;;5074041;28;20224;-71
2021/01/26 12:30:13;;;;;;;57.25;4.00;;;5.10;1.00;;;;;;5073891;28;20225;-71
2021/01/26 12:32:39;;;;;;;58.63;5.40;;;4.70;1.00;;;;;;5073930;28;20201;-71
2021/01/26 12:35:10;;;;;;;61.63;4.45;;;5.10;1.00;;;;;;5073829;28;20732;-70
2021/01/26 12:37:37;;;;;;;60.08;4.82;;;5.40;1.00;;;;;;5074042;28;20292;-70
2021/01/26 12:40:04;;;;;;;59.25;5.18;;;5.30;1.00;;;;;;5073714;28;20262;-70
2021/01/26 12:42:30;;;;;;;59.42;4.97;;;5.20;1.00;;;;;;5073437;28;20229;-70
2021/01/26 12:44:57;;;;;;;59.42;4.18;;;5.20;1.00;;;;;;5073665;28;20225;-70
2021/01/26 12:47:24;;;;;;;61.75;4.70;;;6.30;1.00;;;;;;5073911;28;20510;-70
2021/01/26 12:49:51;;;;;;;60.97;4.47;;;6.50;1.00;;;;;;5073656;28;20209;-71
2021/01/26 12:52:18;;;;;;;59.55;4.75;;;6.00;1.00;;;;;;5072492;28;20207;-72
2021/01/26 12:54:45;;;;;;;60.13;4.93;;;5.40;1.00;;;;;;5073388;28;20224;-70
2021/01/26 12:57:11;;;;;;;60.60;4.50;;;5.00;1.00;;;;;;5073023;28;20224;-69
2021/01/26 12:59:38;;;;;;;59.70;4.65;;;4.70;1.00;;;;;;5074153;28;20693;-70
2021/01/26 13:02:04;;;;;;;57.95;4.97;;;4.60;1.00;;;;;;5073572;28;20252;-70
2021/01/26 13:04:30;;;;;;;57.15;4.20;;;4.60;1.00;;;;;;5074121;28;20315;-69
2021/01/26 13:06:57;;;;;;;58.17;4.57;;;4.60;1.00;;;;;;5074236;28;20241;-69
2021/01/26 13:09:24;;;;;;;57.75;3.90;;;4.60;1.00;;;;;;5074655;28;20213;-71
2021/01/26 13:11:50;;;;;;;59.63;4.60;;;4.70;1.00;;;;;;5075058;28;20227;-69
2021/01/26 13:14:17;;;;;;;60.63;5.50;;;4.70;1.00;;;;;;5074301;28;20314;-70
2021/01/26 13:16:43;;;;;;;59.05;4.40;;;4.80;1.00;;;;;;5073988;28;20869;-70
2021/01/26 13:19:09;;;;;;;58.10;3.80;;;4.70;1.00;;;;;;5073389;28;20236;-70